Terminal Aerodrome Forecast
Issued by NWS

Home | Current Version | Previous Version | Text Only | Print | Product List | Glossary Off
Versions: 1 2 3 4 5 6 7 8 9 10 11 12 13 14 15 16

403
FTUS43 KMPX 231140
TAFAXN
TAF
KAXN 231140Z 2312/2412 19014KT P6SM -RA SCT025 OVC040 WS020/21045KT
     FM231400 20014G23KT P6SM VCSH SCT025 OVC050
     FM232000 21010KT P6SM BKN100
     FM240600 28006KT P6SM SCT100=

USA.gov is the U.S. government's official web portal to all federal, state and local government web resources and services.